createdAt,value
2022-11-15T00:01:02.996Z,87.65
2022-11-15T00:03:34.208Z,87.65
2022-11-15T00:06:07.025Z,87.60
2022-11-15T00:08:38.290Z,87.62
2022-11-15T00:11:12.137Z,87.58
2022-11-15T00:13:43.339Z,87.66
2022-11-15T00:16:14.255Z,87.71
2022-11-15T00:18:50.415Z,87.79
2022-11-15T00:21:21.804Z,87.73
2022-11-15T00:23:52.920Z,87.40
2022-11-15T00:26:23.822Z,87.51
2022-11-15T00:28:56.612Z,87.67
2022-11-15T00:31:27.570Z,87.51
2022-11-15T00:33:58.331Z,87.39
2022-11-15T00:36:29.103Z,87.35
2022-11-15T00:39:00.103Z,87.21
2022-11-15T00:41:31.218Z,87.02
2022-11-15T00:44:02.232Z,87.03
2022-11-15T00:46:32.979Z,87.39
2022-11-15T00:49:04.246Z,87.20
2022-11-15T00:51:35.225Z,87.05
2022-11-15T00:54:08.835Z,87.20
2022-11-15T00:56:39.983Z,87.14
2022-11-15T00:59:10.981Z,86.96
2022-11-15T01:01:41.746Z,86.77
2022-11-15T01:04:12.894Z,86.62
2022-11-15T01:06:44.188Z,86.63
2022-11-15T01:09:15.681Z,86.60
2022-11-15T01:11:46.969Z,86.63
2022-11-15T01:14:22.797Z,86.50
2022-11-15T01:16:56.252Z,86.41
2022-11-15T01:19:27.347Z,86.59
2022-11-15T01:21:58.195Z,86.58
2022-11-15T01:24:29.138Z,86.36
2022-11-15T01:27:00.329Z,86.37
2022-11-15T01:29:30.202Z,86.19
2022-11-15T01:32:01.046Z,86.12
2022-11-15T01:34:32.180Z,85.95
2022-11-15T01:37:03.231Z,85.96
2022-11-15T01:39:32.873Z,85.90
2022-11-15T01:42:03.779Z,85.86
2022-11-15T01:44:43.946Z,85.83
2022-11-15T01:47:18.492Z,85.58
2022-11-15T01:49:56.456Z,85.80
2022-11-15T01:52:30.144Z,85.61
2022-11-15T01:55:06.996Z,85.85
2022-11-15T01:57:38.203Z,85.59
2022-11-15T02:00:11.932Z,85.72
2022-11-15T02:02:42.833Z,85.55
2022-11-15T02:05:14.032Z,85.59
2022-11-15T02:07:45.264Z,85.56
2022-11-15T02:10:20.109Z,85.49
2022-11-15T02:12:52.645Z,85.45
2022-11-15T02:15:26.460Z,85.31
2022-11-15T02:18:13.591Z,85.48
2022-11-15T02:20:54.143Z,85.64
2022-11-15T02:23:54.819Z,85.46
2022-11-15T02:27:14.500Z,85.54
2022-11-15T02:30:05.873Z,85.96
2022-11-15T02:32:44.034Z,85.98
2022-11-15T02:35:26.235Z,85.95
2022-11-15T02:38:01.854Z,85.91
2022-11-15T02:40:41.271Z,85.83
2022-11-15T02:43:34.046Z,85.62
2022-11-15T02:46:10.899Z,85.54
2022-11-15T02:48:43.747Z,85.70
2022-11-15T02:51:15.786Z,85.64
2022-11-15T02:53:46.788Z,85.72
2022-11-15T02:56:17.749Z,85.92
2022-11-15T02:59:24.902Z,85.96
2022-11-15T03:02:12.369Z,85.78
2022-11-15T03:04:54.175Z,86.02
2022-11-15T03:07:31.921Z,86.16
2022-11-15T03:10:08.783Z,86.40
2022-11-15T03:12:49.086Z,86.54
2022-11-15T03:15:23.626Z,86.68
2022-11-15T03:17:59.914Z,86.52
2022-11-15T03:20:33.583Z,86.51
2022-11-15T03:23:09.071Z,86.66
2022-11-15T03:25:44.106Z,86.64
2022-11-15T03:28:19.806Z,86.48
2022-11-15T03:30:52.278Z,86.48
2022-11-15T03:33:25.084Z,86.66
2022-11-15T03:35:57.166Z,86.51
2022-11-15T03:38:32.931Z,86.65
2022-11-15T03:41:07.282Z,86.55
2022-11-15T03:43:45.101Z,86.68
2022-11-15T03:46:22.121Z,86.75
2022-11-15T03:48:56.427Z,86.63
2022-11-15T03:51:27.590Z,86.46
2022-11-15T03:53:58.575Z,86.32
2022-11-15T03:56:29.626Z,86.36
2022-11-15T03:59:00.672Z,86.45
2022-11-15T04:01:31.653Z,86.38
2022-11-15T04:04:02.739Z,86.61
2022-11-15T04:06:33.894Z,86.66
2022-11-15T04:09:05.340Z,86.56
2022-11-15T04:11:36.350Z,86.23
2022-11-15T04:14:07.319Z,86.16
2022-11-15T04:16:43.596Z,86.15
2022-11-15T04:19:32.364Z,86.34
2022-11-15T04:22:20.723Z,86.27
2022-11-15T04:24:51.752Z,86.40
2022-11-15T04:27:22.856Z,86.30
2022-11-15T04:29:53.816Z,86.23
2022-11-15T04:32:24.878Z,86.37
2022-11-15T04:34:55.806Z,86.22
2022-11-15T04:37:26.604Z,86.36
2022-11-15T04:39:57.594Z,86.30
2022-11-15T04:42:28.505Z,86.69
2022-11-15T04:44:59.490Z,86.52
2022-11-15T04:47:30.575Z,86.59
2022-11-15T04:50:01.836Z,86.69
2022-11-15T04:52:32.820Z,86.67
2022-11-15T04:55:07.932Z,86.60
2022-11-15T04:57:39.847Z,86.96
2022-11-15T05:00:14.201Z,86.69
2022-11-15T05:03:22.647Z,86.52
2022-11-15T05:05:53.660Z,86.63
2022-11-15T05:08:24.475Z,86.51
2022-11-15T05:10:55.503Z,86.59
2022-11-15T05:13:26.359Z,86.64
2022-11-15T05:15:57.219Z,86.50
2022-11-15T05:18:28.702Z,86.67
2022-11-15T05:21:04.838Z,86.52
2022-11-15T05:23:35.853Z,86.73
2022-11-15T05:26:09.475Z,86.85
2022-11-15T05:28:40.986Z,87.28
2022-11-15T05:31:13.030Z,87.53
2022-11-15T05:33:45.419Z,87.29
2022-11-15T05:36:21.156Z,87.27
2022-11-15T05:39:10.572Z,87.23
2022-11-15T05:41:45.824Z,87.07
2022-11-15T05:44:19.929Z,87.06
2022-11-15T05:46:54.631Z,87.21
2022-11-15T05:49:31.493Z,87.24
2022-11-15T05:52:05.532Z,87.39
2022-11-15T05:54:37.994Z,87.28
2022-11-15T05:57:09.436Z,87.17
2022-11-15T05:59:41.942Z,87.30
2022-11-15T06:02:13.554Z,87.45
2022-11-15T06:04:44.356Z,87.41
2022-11-15T06:07:15.169Z,87.33
2022-11-15T06:09:46.020Z,87.14
2022-11-15T06:12:17.086Z,86.86
2022-11-15T06:14:47.951Z,87.05
2022-11-15T06:17:18.700Z,87.11
2022-11-15T06:19:49.610Z,86.98
2022-11-15T06:22:20.621Z,86.75
2022-11-15T06:24:51.431Z,86.50
2022-11-15T06:27:22.274Z,86.56
2022-11-15T06:29:53.399Z,86.48
2022-11-15T06:32:24.955Z,86.16
2022-11-15T06:34:55.803Z,85.92
2022-11-15T06:37:26.845Z,85.80
2022-11-15T06:39:57.898Z,85.62
2022-11-15T06:42:28.770Z,86.00
2022-11-15T06:44:59.732Z,86.38
2022-11-15T06:47:30.618Z,86.42
2022-11-15T06:50:01.697Z,86.37
2022-11-15T06:52:34.225Z,86.65
2022-11-15T06:55:05.642Z,86.83
2022-11-15T06:57:36.587Z,87.03
2022-11-15T07:00:09.009Z,87.21
2022-11-15T07:02:40.283Z,87.14
2022-11-15T07:05:12.331Z,87.01
2022-11-15T07:07:43.365Z,87.05
2022-11-15T07:10:13.040Z,86.84
2022-11-15T07:12:43.895Z,87.02
2022-11-15T07:15:14.876Z,87.22
2022-11-15T07:17:46.022Z,87.13
2022-11-15T07:20:18.389Z,86.89
2022-11-15T07:22:49.766Z,86.74
2022-11-15T07:25:21.027Z,86.83
2022-11-15T07:27:59.378Z,86.70
2022-11-15T07:30:31.233Z,86.55
2022-11-15T07:33:03.553Z,86.57
2022-11-15T07:35:34.497Z,86.51
2022-11-15T07:38:06.422Z,86.59
2022-11-15T07:40:37.420Z,86.49
2022-11-15T07:43:12.130Z,86.71
2022-11-15T07:45:46.256Z,86.31
2022-11-15T07:48:17.269Z,86.36
2022-11-15T07:50:48.716Z,86.86
2022-11-15T07:53:19.757Z,86.98
2022-11-15T07:55:50.490Z,87.27
2022-11-15T07:58:21.678Z,87.63
2022-11-15T08:00:52.610Z,87.70
2022-11-15T08:03:23.538Z,87.56
2022-11-15T08:05:55.375Z,87.53
2022-11-15T08:08:26.616Z,87.53
2022-11-15T08:10:59.194Z,87.35
2022-11-15T08:13:30.249Z,87.23
2022-11-15T08:16:03.897Z,87.18
2022-11-15T08:18:34.908Z,87.06
2022-11-15T08:21:06.493Z,86.76
2022-11-15T08:23:37.908Z,86.78
2022-11-15T08:26:09.078Z,86.61
2022-11-15T08:28:40.071Z,86.65
2022-11-15T08:31:17.662Z,86.68
2022-11-15T08:33:49.069Z,86.72
2022-11-15T08:36:20.423Z,86.72
2022-11-15T08:38:49.674Z,86.75
2022-11-15T08:41:26.991Z,86.55
2022-11-15T08:43:57.842Z,86.63
2022-11-15T08:46:28.834Z,86.79
2022-11-15T08:48:58.797Z,86.55
2022-11-15T08:51:29.753Z,87.09
2022-11-15T08:54:00.860Z,87.09
2022-11-15T08:56:31.865Z,87.22
2022-11-15T08:59:02.888Z,87.30
2022-11-15T09:01:36.735Z,87.33
2022-11-15T09:04:07.937Z,87.23
2022-11-15T09:06:43.082Z,87.13
2022-11-15T09:09:14.553Z,87.23
2022-11-15T09:11:45.435Z,87.19
2022-11-15T09:14:17.624Z,87.37
2022-11-15T09:16:48.534Z,87.93
2022-11-15T09:19:19.830Z,88.47
2022-11-15T09:21:50.944Z,89.33
2022-11-15T09:24:22.186Z,89.67
2022-11-15T09:26:53.630Z,89.89
2022-11-15T09:29:24.493Z,89.99
2022-11-15T09:31:56.977Z,89.84
2022-11-15T09:34:28.089Z,89.69
2022-11-15T09:36:59.019Z,89.47
2022-11-15T09:39:28.562Z,89.17
2022-11-15T09:42:32.644Z,89.03
2022-11-15T09:45:17.119Z,88.98
2022-11-15T09:48:02.199Z,88.76
2022-11-15T09:50:38.954Z,88.56
2022-11-15T09:53:15.784Z,88.15
2022-11-15T09:56:02.520Z,87.82
2022-11-15T09:58:42.170Z,87.94
2022-11-15T10:01:22.105Z,87.86
2022-11-15T10:03:53.424Z,87.68
2022-11-15T10:06:27.706Z,87.30
2022-11-15T10:09:03.752Z,87.17
2022-11-15T10:11:38.965Z,86.72
2022-11-15T10:14:15.890Z,86.70
2022-11-15T10:17:13.608Z,86.67
2022-11-15T10:19:54.866Z,86.61
2022-11-15T10:22:32.075Z,86.58
2022-11-15T10:25:18.356Z,86.64
2022-11-15T10:27:55.806Z,86.44
2022-11-15T10:30:32.674Z,86.01
2022-11-15T10:33:18.512Z,85.80
2022-11-15T10:35:49.400Z,85.97
2022-11-15T10:38:20.183Z,86.00
2022-11-15T10:41:08.238Z,85.86
2022-11-15T10:43:39.499Z,85.96
2022-11-15T10:46:45.510Z,86.11
2022-11-15T10:49:19.146Z,85.76
2022-11-15T10:51:53.484Z,85.41
2022-11-15T10:54:29.687Z,85.37
2022-11-15T10:57:07.065Z,85.38
2022-11-15T10:59:39.385Z,85.27
2022-11-15T11:02:30.319Z,85.50
2022-11-15T11:05:02.268Z,85.49
2022-11-15T11:07:35.880Z,85.49
2022-11-15T11:10:49.941Z,85.58
2022-11-15T11:13:24.042Z,85.37
2022-11-15T11:16:00.254Z,85.34
2022-11-15T11:18:37.002Z,85.77
2022-11-15T11:21:13.681Z,85.31
2022-11-15T11:23:54.075Z,85.23
2022-11-15T11:26:42.901Z,85.32
2022-11-15T11:29:28.402Z,85.30
2022-11-15T11:32:05.335Z,85.37
2022-11-15T11:34:49.673Z,85.09
2022-11-15T11:37:33.108Z,85.24
2022-11-15T11:40:16.483Z,85.15
2022-11-15T11:43:00.244Z,85.25
2022-11-15T11:45:50.893Z,85.35
2022-11-15T11:48:41.291Z,85.23
2022-11-15T11:51:18.766Z,84.82
2022-11-15T11:53:57.087Z,84.88
2022-11-15T11:56:31.214Z,85.11
2022-11-15T11:59:21.388Z,85.17
2022-11-15T12:01:52.486Z,85.16
2022-11-15T12:04:31.509Z,85.18
2022-11-15T12:07:07.816Z,84.97
2022-11-15T12:09:43.671Z,84.84
2022-11-15T12:12:25.342Z,85.10
2022-11-15T12:14:59.711Z,85.22
2022-11-15T12:17:37.317Z,85.25
2022-11-15T12:20:20.716Z,84.95
2022-11-15T12:22:58.109Z,85.06
2022-11-15T12:25:35.603Z,84.95
2022-11-15T12:28:17.744Z,84.54
2022-11-15T12:30:53.151Z,84.57
2022-11-15T12:33:44.741Z,84.66
2022-11-15T12:36:36.785Z,84.64
2022-11-15T12:39:09.948Z,84.55
2022-11-15T12:41:42.357Z,84.51
2022-11-15T12:44:34.951Z,84.49
2022-11-15T12:47:24.577Z,84.34
2022-11-15T12:49:55.877Z,84.06
2022-11-15T12:52:27.263Z,84.17
2022-11-15T12:55:06.279Z,84.41
2022-11-15T12:57:42.729Z,84.29
2022-11-15T13:00:41.129Z,84.28
2022-11-15T13:03:30.141Z,84.51
2022-11-15T13:06:27.769Z,84.69
2022-11-15T13:08:58.682Z,84.56
2022-11-15T13:11:50.765Z,84.54
2022-11-15T13:14:46.670Z,84.63
2022-11-15T13:17:38.850Z,84.43
2022-11-15T13:20:24.532Z,84.48
2022-11-15T13:23:03.327Z,84.51
2022-11-15T13:26:05.771Z,84.45
2022-11-15T13:28:39.095Z,84.53
2022-11-15T13:31:24.932Z,84.66
2022-11-15T13:33:58.326Z,84.86
2022-11-15T13:36:34.179Z,84.95
2022-11-15T13:39:08.137Z,84.94
2022-11-15T13:41:47.456Z,85.10
2022-11-15T13:44:26.059Z,85.17
2022-11-15T13:47:08.503Z,85.44
2022-11-15T13:49:39.381Z,85.43
2022-11-15T13:52:09.722Z,85.52
2022-11-15T13:54:45.633Z,85.60
2022-11-15T13:57:21.420Z,85.57
2022-11-15T13:59:55.072Z,85.63
2022-11-15T14:02:32.267Z,85.67
2022-11-15T14:05:13.925Z,85.86
2022-11-15T14:07:57.414Z,85.83
2022-11-15T14:10:34.302Z,85.71
2022-11-15T14:13:06.199Z,85.72
2022-11-15T14:15:38.971Z,85.64
2022-11-15T14:18:34.887Z,85.64
2022-11-15T14:21:10.754Z,85.86
2022-11-15T14:23:44.271Z,85.79
2022-11-15T14:26:32.386Z,85.94
2022-11-15T14:29:26.569Z,85.96
2022-11-15T14:32:08.446Z,86.06
2022-11-15T14:34:39.434Z,86.11
2022-11-15T14:37:18.802Z,86.10
2022-11-15T14:39:58.705Z,86.18
2022-11-15T14:42:32.013Z,86.13
2022-11-15T14:45:04.215Z,86.15
2022-11-15T14:47:35.342Z,86.03
2022-11-15T14:50:07.639Z,86.21
2022-11-15T14:52:38.495Z,86.27
2022-11-15T14:55:19.231Z,86.39
2022-11-15T14:57:50.359Z,86.21
2022-11-15T15:00:22.640Z,86.39
2022-11-15T15:02:56.112Z,86.37
2022-11-15T15:05:34.045Z,86.35
2022-11-15T15:08:06.406Z,86.35
2022-11-15T15:10:40.935Z,86.43
2022-11-15T15:13:19.960Z,86.53
2022-11-15T15:15:52.600Z,86.46
2022-11-15T15:18:23.812Z,86.50
2022-11-15T15:21:01.096Z,86.54
2022-11-15T15:23:32.442Z,86.51
2022-11-15T15:26:01.746Z,86.42
2022-11-15T15:28:34.896Z,86.46
2022-11-15T15:31:08.496Z,86.57
2022-11-15T15:33:39.872Z,86.50
2022-11-15T15:36:13.111Z,86.53
2022-11-15T15:38:44.136Z,86.53
2022-11-15T15:41:16.418Z,86.62
2022-11-15T15:43:48.491Z,86.65
2022-11-15T15:46:20.753Z,86.67
2022-11-15T15:48:51.841Z,86.69
2022-11-15T15:51:22.837Z,86.76
2022-11-15T15:53:53.843Z,86.78
2022-11-15T15:56:25.050Z,86.77
2022-11-15T15:58:56.555Z,86.86
2022-11-15T16:01:27.852Z,86.68
2022-11-15T16:03:58.855Z,86.98
2022-11-15T16:06:45.173Z,86.93
2022-11-15T16:09:18.720Z,86.98
2022-11-15T16:11:50.535Z,87.02
2022-11-15T16:14:21.665Z,86.96
2022-11-15T16:16:51.004Z,86.97
2022-11-15T16:19:22.012Z,87.21
2022-11-15T16:21:53.988Z,87.22
2022-11-15T16:24:24.952Z,87.22
2022-11-15T16:26:55.938Z,87.26
2022-11-15T16:29:27.602Z,87.22
2022-11-15T16:31:58.902Z,87.26
2022-11-15T16:34:32.972Z,87.37
2022-11-15T16:37:05.869Z,87.21
2022-11-15T16:39:35.447Z,87.53
2022-11-15T16:42:06.545Z,87.56
2022-11-15T16:44:37.549Z,87.43
2022-11-15T16:47:14.033Z,87.48
2022-11-15T16:49:46.420Z,87.55
2022-11-15T16:52:21.329Z,87.56
2022-11-15T16:54:53.061Z,87.48
2022-11-15T16:57:23.898Z,87.45
2022-11-15T16:59:55.141Z,87.45
2022-11-15T17:02:26.049Z,87.45
2022-11-15T17:04:55.458Z,87.37
2022-11-15T17:07:26.546Z,87.46
2022-11-15T17:09:57.519Z,87.50
2022-11-15T17:12:28.719Z,87.56
2022-11-15T17:14:59.833Z,87.45
2022-11-15T17:17:31.182Z,87.49
2022-11-15T17:20:05.176Z,87.55
2022-11-15T17:22:36.350Z,87.53
2022-11-15T17:25:06.267Z,87.54
2022-11-15T17:27:35.629Z,87.61
2022-11-15T17:30:08.423Z,87.68
2022-11-15T17:32:40.092Z,87.69
2022-11-15T17:35:15.525Z,87.68
2022-11-15T17:37:48.344Z,87.74
2022-11-15T17:40:19.713Z,87.68
2022-11-15T17:42:50.731Z,87.75
2022-11-15T17:45:21.836Z,87.70
2022-11-15T17:47:53.786Z,87.64
2022-11-15T17:50:25.028Z,87.75
2022-11-15T17:52:55.004Z,87.75
2022-11-15T17:55:26.013Z,87.76
2022-11-15T17:57:55.427Z,87.76
2022-11-15T18:00:26.318Z,87.87
2022-11-15T18:02:59.407Z,87.83
2022-11-15T18:05:30.400Z,87.87
2022-11-15T18:08:01.443Z,87.90
2022-11-15T18:10:32.734Z,87.88
2022-11-15T18:13:03.613Z,87.97
2022-11-15T18:15:34.582Z,87.95
2022-11-15T18:18:04.153Z,88.01
2022-11-15T18:20:35.377Z,87.88
2022-11-15T18:23:06.707Z,88.02
2022-11-15T18:25:37.715Z,87.97
2022-11-15T18:28:08.756Z,87.96
2022-11-15T18:30:39.649Z,88.00
2022-11-15T18:33:10.606Z,88.00
2022-11-15T18:35:41.738Z,87.97
2022-11-15T18:38:12.660Z,88.06
2022-11-15T18:40:43.814Z,88.06
2022-11-15T18:43:14.733Z,88.11
2022-11-15T18:45:45.690Z,88.05
2022-11-15T18:48:16.903Z,88.13
2022-11-15T18:50:46.576Z,88.08
2022-11-15T18:53:18.670Z,88.13
2022-11-15T18:55:49.784Z,88.06
2022-11-15T18:58:23.027Z,88.01
2022-11-15T19:00:52.479Z,88.06
2022-11-15T19:03:23.581Z,88.19
2022-11-15T19:06:01.514Z,88.25
2022-11-15T19:08:35.376Z,88.23
2022-11-15T19:11:10.355Z,88.33
2022-11-15T19:13:41.706Z,88.40
2022-11-15T19:16:14.978Z,88.39
2022-11-15T19:18:46.012Z,88.36
2022-11-15T19:21:17.823Z,88.38
2022-11-15T19:23:48.833Z,88.43
2022-11-15T19:26:20.023Z,88.34
2022-11-15T19:28:54.142Z,88.35
2022-11-15T19:31:27.037Z,88.35
2022-11-15T19:33:59.676Z,88.28
2022-11-15T19:36:33.588Z,88.40
2022-11-15T19:39:09.215Z,88.36
2022-11-15T19:41:42.865Z,88.36
2022-11-15T19:44:14.974Z,88.33
2022-11-15T19:46:46.576Z,88.37
2022-11-15T19:49:17.684Z,88.38
2022-11-15T19:51:49.289Z,88.34
2022-11-15T19:54:20.183Z,88.45
2022-11-15T19:56:49.849Z,88.50
2022-11-15T19:59:21.780Z,88.57
2022-11-15T20:01:52.676Z,88.66
2022-11-15T20:04:23.536Z,88.66
2022-11-15T20:06:53.192Z,88.73
2022-11-15T20:09:25.965Z,88.77
2022-11-15T20:11:58.763Z,88.84
2022-11-15T20:14:30.430Z,88.97
2022-11-15T20:17:01.263Z,88.98
2022-11-15T20:19:32.212Z,89.12
2022-11-15T20:22:03.196Z,89.13
2022-11-15T20:24:32.778Z,89.13
2022-11-15T20:27:03.765Z,89.21
2022-11-15T20:29:33.194Z,89.29
2022-11-15T20:32:04.124Z,89.35
2022-11-15T20:34:35.314Z,89.42
2022-11-15T20:37:06.492Z,89.47
2022-11-15T20:39:37.798Z,89.51
2022-11-15T20:42:09.467Z,89.59
2022-11-15T20:44:40.334Z,89.61
2022-11-15T20:47:09.730Z,89.61
2022-11-15T20:49:40.533Z,89.77
2022-11-15T20:52:11.479Z,89.92
2022-11-15T20:54:42.482Z,89.99
2022-11-15T20:57:13.205Z,90.03
2022-11-15T20:59:44.584Z,90.21
2022-11-15T21:02:16.557Z,90.32
2022-11-15T21:04:48.203Z,90.38
2022-11-15T21:07:17.799Z,90.33
2022-11-15T21:10:12.023Z,90.48
2022-11-15T21:12:42.900Z,90.51
2022-11-15T21:15:14.151Z,90.46
2022-11-15T21:17:45.235Z,90.51
2022-11-15T21:20:16.831Z,90.42
2022-11-15T21:22:48.677Z,90.37
2022-11-15T21:25:19.895Z,90.40
2022-11-15T21:27:51.627Z,90.33
2022-11-15T21:30:22.829Z,90.29
2022-11-15T21:32:53.766Z,90.43
2022-11-15T21:35:24.837Z,90.43
2022-11-15T21:37:56.981Z,90.32
2022-11-15T21:40:28.457Z,90.42
2022-11-15T21:42:59.248Z,90.51
2022-11-15T21:45:30.110Z,90.43
2022-11-15T21:48:00.807Z,90.36
2022-11-15T21:50:30.523Z,90.36
2022-11-15T21:53:01.577Z,90.39
2022-11-15T21:55:32.544Z,90.32
2022-11-15T21:58:03.497Z,90.33
2022-11-15T22:00:52.321Z,90.23
2022-11-15T22:03:23.287Z,90.30
2022-11-15T22:05:54.258Z,90.23
2022-11-15T22:08:25.413Z,90.24
2022-11-15T22:10:56.961Z,90.13
2022-11-15T22:13:28.701Z,90.02
2022-11-15T22:15:59.800Z,90.18
2022-11-15T22:18:30.994Z,90.10
2022-11-15T22:21:05.356Z,89.96
2022-11-15T22:23:37.319Z,90.04
2022-11-15T22:26:09.277Z,90.15
2022-11-15T22:28:40.800Z,90.32
2022-11-15T22:31:12.409Z,90.53
2022-11-15T22:33:43.838Z,90.52
2022-11-15T22:36:15.378Z,90.52
2022-11-15T22:38:46.725Z,90.57
2022-11-15T22:41:16.095Z,90.49
2022-11-15T22:43:48.295Z,90.49
2022-11-15T22:46:19.200Z,90.42
2022-11-15T22:48:50.273Z,90.39
2022-11-15T22:51:21.609Z,90.35
2022-11-15T22:53:52.750Z,90.44
2022-11-15T22:56:22.002Z,90.31
2022-11-15T22:58:52.943Z,90.29
2022-11-15T23:01:24.349Z,90.20
2022-11-15T23:03:55.484Z,90.21
2022-11-15T23:06:24.894Z,90.11
2022-11-15T23:08:55.905Z,90.21
2022-11-15T23:11:46.623Z,90.17
2022-11-15T23:14:17.395Z,90.10
2022-11-15T23:16:49.013Z,90.08
2022-11-15T23:19:20.043Z,90.03
2022-11-15T23:22:07.015Z,90.05
2022-11-15T23:24:38.099Z,90.01
2022-11-15T23:27:10.742Z,89.96
2022-11-15T23:29:56.113Z,90.00
2022-11-15T23:32:44.644Z,89.88
2022-11-15T23:35:15.795Z,89.87
2022-11-15T23:37:45.281Z,89.85
2022-11-15T23:40:16.669Z,89.80
2022-11-15T23:42:47.654Z,89.87
2022-11-15T23:45:17.377Z,89.85
2022-11-15T23:47:48.623Z,89.83
2022-11-15T23:50:20.027Z,89.86
2022-11-15T23:52:51.091Z,89.84
2022-11-15T23:55:22.101Z,89.83
2022-11-15T23:57:51.471Z,89.80
